Observation data for Hart on 02/22/2019      Previous  Date  Next       Current Mesonet Observations  Soil Data  Daily Summary Page  Observations in Plain Language
KHRS 220600Z 07008KT M00/M05 A2988 RMK A01 T10021050  RH  071%=      5-min Rain = 0
KHRS 220605Z 07008KT M00/M05 A2988 RMK A01 T10031050  RH  071%=      5-min Rain = 0
KHRS 220610Z 07009KT M00/M05 A2988 RMK A01 T10021049  RH  072%=      5-min Rain = 0
KHRS 220615Z 06009KT M00/M05 A2987 RMK A01 T10021049  RH  071%=      5-min Rain = 0
KHRS 220620Z 06008KT M00/M05 A2988 RMK A01 T10031050  RH  072%=      5-min Rain = 0
KHRS 220625Z 06007KT M01/M05 A2988 RMK A01 T10051050  RH  072%=      5-min Rain = 0
KHRS 220630Z 05006KT M01/M05 A2988 RMK A01 T10081052  RH  073%=      5-min Rain = 0
KHRS 220635Z 06007KT M01/M06 A2988 RMK A01 T10121055  RH  073%=      5-min Rain = 0
KHRS 220640Z 06007KT M01/M06 A2988 RMK A01 T10141056  RH  074%=      5-min Rain = 0
KHRS 220645Z 05007KT M02/M06 A2988 RMK A01 T10161055  RH  075%=      5-min Rain = 0
KHRS 220650Z 04006KT M02/M06 A2988 RMK A01 T10181059  RH  075%=      5-min Rain = 0
KHRS 220655Z 04006KT M02/M06 A2989 RMK A01 T10231062  RH  076%=      5-min Rain = 0
KHRS 220700Z 04005KT M02/M06 A2989 RMK A01 T10241060  RH  077%=      5-min Rain = 0
KHRS 220705Z 05006KT M03/M06 A2989 RMK A01 T10251058  RH  079%=      5-min Rain = 0
KHRS 220710Z 06007KT M03/M06 A2988 RMK A01 T10251058  RH  079%=      5-min Rain = 0
KHRS 220715Z 05006KT M03/M06 A2989 RMK A01 T10251057  RH  080%=      5-min Rain = 0
KHRS 220720Z 04005KT M03/M06 A2989 RMK A01 T10251056  RH  080%=      5-min Rain = 0
KHRS 220725Z 04006KT M03/M06 A2989 RMK A01 T10261057  RH  080%=      5-min Rain = 0
KHRS 220730Z 04006KT M03/M06 A2989 RMK A01 T10281058  RH  081%=      5-min Rain = 0
KHRS 220735Z 05007KT M03/M06 A2989 RMK A01 T10291058  RH  081%=      5-min Rain = 0
KHRS 220740Z 05006KT M03/M06 A2989 RMK A01 T10291057  RH  082%=      5-min Rain = 0
KHRS 220745Z 04005KT M03/M06 A2989 RMK A01 T10301058  RH  082%=      5-min Rain = 0
KHRS 220750Z 04006KT M03/M06 A2989 RMK A01 T10311059  RH  082%=      5-min Rain = 0
KHRS 220755Z 06006KT M03/M06 A299 RMK A01 T10321059  RH  083%=      5-min Rain = 0
KHRS 220800Z 06006KT M03/M06 A299 RMK A01 T10301055  RH  084%=      5-min Rain = 0
KHRS 220805Z 05004KT M03/M05 A2991 RMK A01 T10261050  RH  085%=      5-min Rain = 0
KHRS 220810Z 05005KT M02/M05 A2991 RMK A01 T10221047  RH  084%=      5-min Rain = 0
KHRS 220815Z 06008KT M02/M04 A299 RMK A01 T10191044  RH  084%=      5-min Rain = 0
KHRS 220820Z 08011KT M02/M04 A2989 RMK A01 T10161042  RH  083%=      5-min Rain = 0
KHRS 220825Z 08012KT M02/M04 A299 RMK A01 T10151041  RH  083%=      5-min Rain = 0
KHRS 220830Z 08010KT M02/M04 A299 RMK A01 T10161042  RH  083%=      5-min Rain = 0
KHRS 220835Z 07010KT M02/M04 A299 RMK A01 T10171042  RH  084%=      5-min Rain = 0
KHRS 220840Z 07009KT M02/M04 A299 RMK A01 T10171041  RH  085%=      5-min Rain = 0
KHRS 220845Z 07009KT M02/M04 A299 RMK A01 T10151038  RH  085%=      5-min Rain = 0
KHRS 220850Z 07007KT M02/M04 A299 RMK A01 T10151038  RH  085%=      5-min Rain = 0
KHRS 220855Z 07007KT M02/M04 A299 RMK A01 T10171040  RH  085%=      5-min Rain = 0
KHRS 220900Z 07008KT M02/M04 A2991 RMK A01 T10181040  RH  086%=      5-min Rain = 0
KHRS 220905Z 07008KT M02/M04 A2991 RMK A01 T10191040  RH  087%=      5-min Rain = 0
KHRS 220910Z 07008KT M02/M04 A299 RMK A01 T10201041  RH  087%=      5-min Rain = 0
KHRS 220915Z 07008KT M02/M04 A299 RMK A01 T10211042  RH  087%=      5-min Rain = 0
KHRS 220920Z 07008KT M02/M04 A299 RMK A01 T10221042  RH  087%=      5-min Rain = 0
KHRS 220925Z 07008KT M02/M04 A299 RMK A01 T10231042  RH  088%=      5-min Rain = 0
KHRS 220930Z 07008KT M02/M04 A299 RMK A01 T10231041  RH  088%=      5-min Rain = 0
KHRS 220935Z 07008KT M02/M04 A299 RMK A01 T10241041  RH  089%=      5-min Rain = 0
KHRS 220940Z 07008KT M02/M04 A2989 RMK A01 T10241041  RH  089%=      5-min Rain = 0
KHRS 220945Z 07008KT M02/M04 A2989 RMK A01 T10241040  RH  090%=      5-min Rain = 0
KHRS 220950Z 07007KT M02/M04 A2989 RMK A01 T10241040  RH  090%=      5-min Rain = 0
KHRS 220955Z 07008KT M03/M04 A2989 RMK A01 T10251039  RH  091%=      5-min Rain = 0
KHRS 221000Z 07008KT M02/M04 A2989 RMK A01 T10231037  RH  091%=      5-min Rain = 0
KHRS 221005Z 07008KT M02/M04 A2989 RMK A01 T10221035  RH  091%=      5-min Rain = 0
KHRS 221010Z 08009KT M02/M04 A2989 RMK A01 T10211035  RH  092%=      5-min Rain = 0
KHRS 221015Z 08009KT M02/M03 A2988 RMK A01 T10201032  RH  092%=      5-min Rain = 0
KHRS 221020Z 08010KT M02/M03 A2988 RMK A01 T10191031  RH  092%=      5-min Rain = 0
KHRS 221025Z 09010KT M02/M03 A2988 RMK A01 T10171030  RH  092%=      5-min Rain = 0
KHRS 221030Z 10011KT M01/M03 A2988 RMK A01 T10141025  RH  093%=      5-min Rain = 0
KHRS 221035Z 10011KT M01/M02 A2988 RMK A01 T10111022  RH  094%=      5-min Rain = 0
KHRS 221040Z 10010KT M01/M02 A2988 RMK A01 T10101022  RH  093%=      5-min Rain = 0
KHRS 221045Z 10009KT M01/M02 A2988 RMK A01 T10101021  RH  093%=      5-min Rain = 0
KHRS 221050Z 09009KT M01/M02 A2988 RMK A01 T10101020  RH  094%=      5-min Rain = 0
KHRS 221055Z 10009KT M01/M02 A2988 RMK A01 T10111021  RH  094%=      5-min Rain = 0
KHRS 221100Z 09009KT M01/M02 A2988 RMK A01 T10121022  RH  094%=      5-min Rain = 0
KHRS 221105Z 09010KT M01/M02 A2987 RMK A01 T10121022  RH  094%=      5-min Rain = 0
KHRS 221110Z 09009KT M01/M02 A2987 RMK A01 T10111020  RH  095%=      5-min Rain = 0
KHRS 221115Z 10010KT M01/M02 A2987 RMK A01 T10101017  RH  096%=      5-min Rain = 0
KHRS 221120Z 09010KT M01/M02 A2987 RMK A01 T10091015  RH  096%=      5-min Rain = 0
KHRS 221125Z 10009KT M01/M01 A2987 RMK A01 T10081013  RH  097%=      5-min Rain = 0
KHRS 221130Z 10009KT M01/M01 A2987 RMK A01 T10071012  RH  098%=      5-min Rain = 0
KHRS 221135Z 10011KT M01/M01 A2987 RMK A01 T10061010  RH  098%=      5-min Rain = 0
KHRS 221140Z 10011KT M01/M01 A2988 RMK A01 T10061010  RH  099%=      5-min Rain = 0
KHRS 221145Z 10012KT M01/M01 A2987 RMK A01 T10061009  RH  099%=      5-min Rain = 0
KHRS 221150Z 11011KT M01/M01 A2987 RMK A01 T10061009  RH  099%=      5-min Rain = 0
KHRS 221155Z 10012KT M01/M01 A2987 RMK A01 T10071009  RH  099%=      5-min Rain = 0
KHRS 221200Z 11012KT M01/M01 A2987 RMK A01 T10071009  RH  100%=      5-min Rain = 0
KHRS 221205Z 11010KT M01/M01 A2988 RMK A01 T10061008  RH  100%=      5-min Rain = 0
KHRS 221210Z 10010KT M01/M01 A2988 RMK A01 T10061007  RH  100%=      5-min Rain = 0
KHRS 221215Z 10010KT M01/M01 A2988 RMK A01 T10061008  RH  100%=      5-min Rain = 0
KHRS 221220Z 10009KT M01/M01 A2988 RMK A01 T10061007  RH  100%=      5-min Rain = 0
KHRS 221225Z 10011KT M01/M01 A2988 RMK A01 T10061008  RH  100%=      5-min Rain = 0
KHRS 221230Z 10011KT M01/M01 A2988 RMK A01 T10071008  RH  100%=      5-min Rain = 0
KHRS 221235Z 10010KT M01/M01 A2988 RMK A01 T10071008  RH  100%=      5-min Rain = 0
KHRS 221240Z 10010KT M01/M01 A2989 RMK A01 T10061008  RH  100%=      5-min Rain = 0
KHRS 221245Z 09010KT M01/M01 A2989 RMK A01 T10061007  RH  100%=      5-min Rain = 0
KHRS 221250Z 10011KT M01/M01 A2989 RMK A01 T10061008  RH  100%=      5-min Rain = 0
KHRS 221255Z 10010KT M01/M01 A2989 RMK A01 T10071008  RH  100%=      5-min Rain = 0
KHRS 221300Z 10011KT M01/M01 A2989 RMK A01 T10061008  RH  100%=      5-min Rain = 0
KHRS 221305Z 10011KT M01/M01 A2989 RMK A01 T10061008  RH  100%=      5-min Rain = 0
KHRS 221310Z 11011KT M01/M01 A2989 RMK A01 T10061007  RH  100%=      5-min Rain = 0
KHRS 221315Z 11011KT M01/M01 A2989 RMK A01 T10061007  RH  100%=      5-min Rain = 0
KHRS 221320Z 11009KT M01/M01 A299 RMK A01 T10051007  RH  100%=      5-min Rain = 0
KHRS 221325Z 11009KT M01/M01 A299 RMK A01 T10051006  RH  100%=      5-min Rain = 0
KHRS 221330Z 11009KT M00/M01 A299 RMK A01 T10041006  RH  100%=      5-min Rain = 0
KHRS 221335Z 11009KT M00/M01 A299 RMK A01 T10041005  RH  100%=      5-min Rain = 0
KHRS 221340Z 11009KT M00/M00 A2991 RMK A01 T10031004  RH  100%=      5-min Rain = 0
KHRS 221345Z 12008KT M00/M00 A2991 RMK A01 T10021004  RH  100%=      5-min Rain = 0
KHRS 221350Z 11009KT M00/M00 A2991 RMK A01 T10021003  RH  100%=      5-min Rain = 0
KHRS 221355Z 12009KT M00/M00 A2992 RMK A01 T10011003  RH  100%=      5-min Rain = 0
KHRS 221400Z 11007KT M00/M00 A2993 RMK A01 T10011002  RH  100%=      5-min Rain = 0
KHRS 221405Z 11008KT 00/00 A2993 RMK A01 T000000-1  RH  100%=      5-min Rain = 0
KHRS 221410Z 12008KT 00/M00 A2993 RMK A01 T00011001  RH  100%=      5-min Rain = 0
KHRS 221415Z 12007KT 00/00 A2993 RMK A01 T000200-0  RH  100%=      5-min Rain = 0
KHRS 221420Z 12007KT 00/00 A2994 RMK A01 T00020001  RH  100%=      5-min Rain = 0
KHRS 221425Z 11008KT 00/00 A2994 RMK A01 T00030001  RH  100%=      5-min Rain = 0
KHRS 221430Z 12007KT 00/00 A2994 RMK A01 T00040002  RH  100%=      5-min Rain = 0
KHRS 221435Z 12007KT 01/00 A2994 RMK A01 T00050003  RH  100%=      5-min Rain = 0
KHRS 221440Z 12008KT 01/00 A2994 RMK A01 T00050004  RH  100%=      5-min Rain = 0
KHRS 221445Z 12007KT 01/00 A2994 RMK A01 T00060004  RH  100%=      5-min Rain = 0
KHRS 221450Z 12009KT 01/01 A2994 RMK A01 T00070006  RH  100%=      5-min Rain = 0
KHRS 221455Z 12008KT 01/01 A2994 RMK A01 T00080007  RH  100%=      5-min Rain = 0
KHRS 221500Z 13009KT 01/01 A2994 RMK A01 T00090007  RH  100%=      5-min Rain = 0
KHRS 221505Z 12009KT 01/01 A2994 RMK A01 T00100009  RH  100%=      5-min Rain = 0
KHRS 221510Z 11009KT 01/01 A2994 RMK A01 T00110009  RH  100%=      5-min Rain = 0
KHRS 221515Z 11008KT 01/01 A2995 RMK A01 T00120011  RH  100%=      5-min Rain = 0
KHRS 221520Z 12008KT 01/01 A2995 RMK A01 T00130011  RH  100%=      5-min Rain = 0
KHRS 221525Z 11009KT 01/01 A2995 RMK A01 T00130012  RH  100%=      5-min Rain = 0
KHRS 221530Z 11008KT 01/01 A2996 RMK A01 T00140013  RH  100%=      5-min Rain = 0
KHRS 221535Z 11009KT 01/01 A2996 RMK A01 T00140013  RH  100%=      5-min Rain = 0
KHRS 221540Z 11008KT 02/01 A2996 RMK A01 T00150014  RH  100%=      5-min Rain = 0
KHRS 221545Z 11008KT 02/02 A2996 RMK A01 T00170015  RH  100%=      5-min Rain = 0
KHRS 221550Z 11008KT 02/02 A2996 RMK A01 T00170016  RH  100%=      5-min Rain = 0
KHRS 221555Z 11008KT 02/02 A2996 RMK A01 T00170015  RH  100%=      5-min Rain = 0
KHRS 221600Z 11008KT 02/02 A2996 RMK A01 T00170016  RH  100%=      5-min Rain = 0
KHRS 221605Z 11007KT 02/02 A2996 RMK A01 T00190018  RH  100%=      5-min Rain = 0
KHRS 221610Z 12008KT 02/02 A2996 RMK A01 T00200018  RH  100%=      5-min Rain = 0
KHRS 221615Z 11007KT 02/02 A2996 RMK A01 T00200018  RH  100%=      5-min Rain = 0
KHRS 221620Z 12007KT 02/02 A2996 RMK A01 T00210019  RH  100%=      5-min Rain = 0
KHRS 221625Z 12007KT 02/02 A2995 RMK A01 T00210020  RH  100%=      5-min Rain = 0
KHRS 221630Z 12007KT 02/02 A2995 RMK A01 T00230021  RH  100%=      5-min Rain = 0
KHRS 221635Z 11006KT 02/02 A2995 RMK A01 T00240023  RH  100%=      5-min Rain = 0
KHRS 221640Z 12006KT 03/02 A2995 RMK A01 T00250023  RH  100%=      5-min Rain = 0
KHRS 221645Z 12007KT 02/02 A2995 RMK A01 T00240022  RH  100%=      5-min Rain = 0
KHRS 221650Z 13008KT 03/02 A2995 RMK A01 T00260024  RH  100%=      5-min Rain = 0
KHRS 221655Z 13008KT 03/03 A2994 RMK A01 T00280026  RH  100%=      5-min Rain = 0
KHRS 221700Z 12007KT 03/03 A2994 RMK A01 T00300028  RH  100%=      5-min Rain = 0
KHRS 221705Z 12009KT 03/03 A2994 RMK A01 T00310029  RH  100%=      5-min Rain = 0
KHRS 221710Z 13009KT 03/03 A2994 RMK A01 T00330031  RH  100%=      5-min Rain = 0
KHRS 221715Z 13008KT 03/03 A2994 RMK A01 T00340033  RH  100%=      5-min Rain = 0
KHRS 221720Z 13009KT 04/03 A2994 RMK A01 T00350033  RH  100%=      5-min Rain = 0
KHRS 221725Z 13009KT 04/03 A2993 RMK A01 T00350034  RH  100%=      5-min Rain = 0
KHRS 221730Z 13009KT 04/04 A2993 RMK A01 T00370035  RH  100%=      5-min Rain = 0
KHRS 221735Z 13009KT 04/04 A2993 RMK A01 T00370035  RH  100%=      5-min Rain = 0
KHRS 221740Z 13010KT 04/04 A2993 RMK A01 T00380036  RH  100%=      5-min Rain = 0
KHRS 221745Z 14008KT 04/04 A2993 RMK A01 T00380036  RH  100%=      5-min Rain = 0
KHRS 221750Z 14009KT 04/04 A2993 RMK A01 T00400038  RH  100%=      5-min Rain = 0
KHRS 221755Z 14008KT 04/04 A2993 RMK A01 T00420040  RH  100%=      5-min Rain = 0
KHRS 221800Z 15008G13KT 04/04 A2992 RMK A01 T00430041  RH  100%=      5-min Rain = 0
KHRS 221805Z 16009KT 04/04 A2992 RMK A01 T00430041  RH  100%=      5-min Rain = 0
KHRS 221810Z 15010KT 05/04 A2992 RMK A01 T00450043  RH  100%=      5-min Rain = 0
KHRS 221815Z 16009KT 04/04 A2992 RMK A01 T00440042  RH  100%=      5-min Rain = 0
KHRS 221820Z 17008KT 05/04 A2991 RMK A01 T00450043  RH  100%=      5-min Rain = 0
KHRS 221825Z 16007KT 05/05 A2991 RMK A01 T00460045  RH  100%=      5-min Rain = 0
KHRS 221830Z 16008KT 05/05 A2991 RMK A01 T00480046  RH  100%=      5-min Rain = 0
KHRS 221835Z 16007KT 05/05 A299 RMK A01 T00510049  RH  100%=      5-min Rain = 0
KHRS 221840Z 17008KT 05/05 A299 RMK A01 T00520049  RH  100%=      5-min Rain = 0
KHRS 221845Z 16008KT 05/05 A299 RMK A01 T00540048  RH  098%=      5-min Rain = 0
KHRS 221850Z 16007KT 06/05 A2989 RMK A01 T00570048  RH  095%=      5-min Rain = 0
KHRS 221855Z 15008KT 06/05 A2989 RMK A01 T00620047  RH  091%=      5-min Rain = 0
KHRS 221900Z 16008KT 06/04 A2989 RMK A01 T00630043  RH  089%=      5-min Rain = 0
KHRS 221905Z 17006G11KT 07/04 A2988 RMK A01 T00660044  RH  086%=      5-min Rain = 0
KHRS 221910Z 18007KT 07/04 A2988 RMK A01 T00690039  RH  082%=      5-min Rain = 0
KHRS 221915Z 18007KT 07/04 A2988 RMK A01 T00740039  RH  079%=      5-min Rain = 0
KHRS 221920Z 17007KT 08/04 A2987 RMK A01 T00770042  RH  079%=      5-min Rain = 0
KHRS 221925Z 18008KT 08/04 A2987 RMK A01 T00790039  RH  077%=      5-min Rain = 0
KHRS 221930Z 16007KT 08/04 A2986 RMK A01 T00770037  RH  077%=      5-min Rain = 0
KHRS 221935Z 17007G13KT 08/04 A2986 RMK A01 T00810040  RH  077%=      5-min Rain = 0
KHRS 221940Z 17007KT 09/04 A2986 RMK A01 T00870039  RH  073%=      5-min Rain = 0
KHRS 221945Z 18006KT 09/04 A2985 RMK A01 T00880041  RH  073%=      5-min Rain = 0
KHRS 221950Z 17007KT 09/04 A2985 RMK A01 T00910038  RH  071%=      5-min Rain = 0
KHRS 221955Z 17006KT 09/04 A2984 RMK A01 T00890038  RH  071%=      5-min Rain = 0
KHRS 222000Z 19008KT 09/04 A2984 RMK A01 T00940037  RH  069%=      5-min Rain = 0
KHRS 222005Z 17007KT 10/04 A2984 RMK A01 T00960038  RH  068%=      5-min Rain = 0
KHRS 222010Z 18009KT 10/04 A2984 RMK A01 T00960037  RH  067%=      5-min Rain = 0
KHRS 222015Z 17006G12KT 10/04 A2983 RMK A01 T00970036  RH  067%=      5-min Rain = 0
KHRS 222020Z 16007G12KT 10/04 A2983 RMK A01 T01000037  RH  066%=      5-min Rain = 0
KHRS 222025Z 16007G12KT 10/04 A2983 RMK A01 T01000035  RH  065%=      5-min Rain = 0
KHRS 222030Z 16007KT 10/04 A2982 RMK A01 T01030036  RH  064%=      5-min Rain = 0
KHRS 222035Z 14008KT 11/04 A2982 RMK A01 T01050037  RH  064%=      5-min Rain = 0
KHRS 222040Z 17006KT 11/04 A2982 RMK A01 T01080036  RH  062%=      5-min Rain = 0
KHRS 222045Z 16009KT 11/03 A2981 RMK A01 T01090033  RH  060%=      5-min Rain = 0
KHRS 222050Z 16008KT 11/03 A2981 RMK A01 T01100030  RH  058%=      5-min Rain = 0
KHRS 222055Z 15008G14KT 11/03 A2981 RMK A01 T01120032  RH  059%=      5-min Rain = 0
KHRS 222100Z 15006G11KT 11/03 A2981 RMK A01 T01120032  RH  058%=      5-min Rain = 0
KHRS 222105Z 14008G14KT 11/03 A2981 RMK A01 T01140032  RH  058%=      5-min Rain = 0
KHRS 222110Z 14008KT 12/03 A2981 RMK A01 T01150033  RH  058%=      5-min Rain = 0
KHRS 222115Z 12010KT 12/03 A298 RMK A01 T01160031  RH  057%=      5-min Rain = 0
KHRS 222120Z 14008KT 12/03 A298 RMK A01 T01170030  RH  056%=      5-min Rain = 0
KHRS 222125Z 14009G14KT 12/03 A298 RMK A01 T01200031  RH  055%=      5-min Rain = 0
KHRS 222130Z 13009KT 12/03 A298 RMK A01 T01190027  RH  054%=      5-min Rain = 0
KHRS 222135Z 14008G13KT 12/03 A298 RMK A01 T01220025  RH  052%=      5-min Rain = 0
KHRS 222140Z 16007G13KT 12/01 A2979 RMK A01 T01210014  RH  048%=      5-min Rain = 0
KHRS 222145Z 15007KT 12/02 A2979 RMK A01 T01230016  RH  049%=      5-min Rain = 0
KHRS 222150Z 16007G12KT 13/02 A2979 RMK A01 T01250018  RH  048%=      5-min Rain = 0
KHRS 222155Z 16008KT 13/02 A2979 RMK A01 T01270018  RH  048%=      5-min Rain = 0
KHRS 222200Z 14008G13KT 13/02 A2979 RMK A01 T01280020  RH  048%=      5-min Rain = 0
KHRS 222205Z 15009KT 13/02 A2979 RMK A01 T01290022  RH  049%=      5-min Rain = 0
KHRS 222210Z 15008G13KT 13/02 A2979 RMK A01 T01310023  RH  048%=      5-min Rain = 0
KHRS 222215Z 15009G14KT 13/02 A2979 RMK A01 T01330022  RH  047%=      5-min Rain = 0
KHRS 222220Z 14009KT 13/02 A2979 RMK A01 T01330020  RH  047%=      5-min Rain = 0
KHRS 222225Z 15008G14KT 13/02 A2979 RMK A01 T01340020  RH  046%=      5-min Rain = 0
KHRS 222230Z 13010KT 14/02 A2979 RMK A01 T01350020  RH  046%=      5-min Rain = 0
KHRS 222235Z 14012G17KT 14/02 A2979 RMK A01 T01350017  RH  045%=      5-min Rain = 0
KHRS 222240Z 15010KT 13/02 A2978 RMK A01 T01330020  RH  047%=      5-min Rain = 0
KHRS 222245Z 13012G17KT 14/02 A2978 RMK A01 T01350020  RH  046%=      5-min Rain = 0
KHRS 222250Z 14010KT 13/02 A2978 RMK A01 T01340022  RH  047%=      5-min Rain = 0
KHRS 222255Z 13012G17KT 14/02 A2978 RMK A01 T01350020  RH  046%=      5-min Rain = 0
KHRS 222300Z 13011KT 14/02 A2978 RMK A01 T01350020  RH  046%=      5-min Rain = 0
KHRS 222305Z 14010KT 13/02 A2978 RMK A01 T01340017  RH  045%=      5-min Rain = 0
KHRS 222310Z 14011KT 14/02 A2978 RMK A01 T01350019  RH  046%=      5-min Rain = 0
KHRS 222315Z 14011KT 13/02 A2977 RMK A01 T01340017  RH  045%=      5-min Rain = 0
KHRS 222320Z 14012G17KT 14/02 A2977 RMK A01 T01360017  RH  045%=      5-min Rain = 0
KHRS 222325Z 15010G16KT 13/02 A2978 RMK A01 T01340015  RH  045%=      5-min Rain = 0
KHRS 222330Z 13014G19KT 13/03 A2978 RMK A01 T01330025  RH  049%=      5-min Rain = 0
KHRS 222335Z 13014G19KT 13/03 A2977 RMK A01 T01300028  RH  050%=      5-min Rain = 0
KHRS 222340Z 13014G19KT 13/03 A2977 RMK A01 T01280030  RH  052%=      5-min Rain = 0
KHRS 222345Z 13014KT 12/03 A2977 RMK A01 T01240033  RH  054%=      5-min Rain = 0
KHRS 222350Z 13015KT 12/03 A2977 RMK A01 T01220033  RH  055%=      5-min Rain = 0
KHRS 222355Z 13015KT 12/03 A2977 RMK A01 T01190034  RH  057%=      5-min Rain = 0
KHRS 230000Z 13014G19KT 12/04 A2977 RMK A01 T01160035  RH  059%=      5-min Rain = 0
KHRS 230005Z 13014G20KT 11/04 A2977 RMK A01 T01120036  RH  060%=      5-min Rain = 0
KHRS 230010Z 13015KT 11/04 A2977 RMK A01 T01090037  RH  062%=      5-min Rain = 0
KHRS 230015Z 12015G20KT 10/04 A2977 RMK A01 T01040038  RH  065%=      5-min Rain = 0
KHRS 230020Z 12016KT 10/04 A2978 RMK A01 T00980039  RH  068%=      5-min Rain = 0
KHRS 230025Z 12014G19KT 09/04 A2978 RMK A01 T00930038  RH  069%=      5-min Rain = 0
KHRS 230030Z 12015G20KT 09/04 A2978 RMK A01 T00890038  RH  071%=      5-min Rain = 0
KHRS 230035Z 12015KT 09/04 A2978 RMK A01 T00850037  RH  073%=      5-min Rain = 0
KHRS 230040Z 12014G19KT 08/04 A2978 RMK A01 T00820036  RH  074%=      5-min Rain = 0
KHRS 230045Z 12013KT 08/04 A2978 RMK A01 T00780035  RH  075%=      5-min Rain = 0
KHRS 230050Z 12013KT 08/03 A2978 RMK A01 T00750034  RH  076%=      5-min Rain = 0
KHRS 230055Z 12012KT 07/03 A2977 RMK A01 T00720033  RH  077%=      5-min Rain = 0
KHRS 230100Z 11013KT 07/03 A2977 RMK A01 T00680032  RH  079%=      5-min Rain = 0
KHRS 230105Z 11013KT 07/03 A2977 RMK A01 T00650032  RH  080%=      5-min Rain = 0
KHRS 230110Z 12012KT 06/03 A2977 RMK A01 T00620032  RH  082%=      5-min Rain = 0
KHRS 230115Z 11012KT 06/03 A2977 RMK A01 T00590031  RH  083%=      5-min Rain = 0
KHRS 230120Z 11011KT 06/03 A2977 RMK A01 T00570030  RH  084%=      5-min Rain = 0
KHRS 230125Z 11011KT 05/03 A2977 RMK A01 T00540029  RH  085%=      5-min Rain = 0
KHRS 230130Z 11010KT 05/03 A2977 RMK A01 T00520028  RH  086%=      5-min Rain = 0
KHRS 230135Z 11011KT 05/03 A2976 RMK A01 T00500028  RH  087%=      5-min Rain = 0
KHRS 230140Z 10011KT 05/03 A2976 RMK A01 T00490028  RH  087%=      5-min Rain = 0
KHRS 230145Z 10010KT 05/03 A2976 RMK A01 T00460025  RH  088%=      5-min Rain = 0
KHRS 230150Z 10010KT 04/02 A2975 RMK A01 T00430024  RH  088%=      5-min Rain = 0
KHRS 230155Z 10010KT 04/02 A2976 RMK A01 T00420024  RH  089%=      5-min Rain = 0
KHRS 230200Z 10011KT 04/02 A2976 RMK A01 T00400024  RH  090%=      5-min Rain = 0
KHRS 230205Z 10011KT 04/02 A2976 RMK A01 T00390023  RH  090%=      5-min Rain = 0
KHRS 230210Z 10013KT 04/02 A2975 RMK A01 T00390024  RH  091%=      5-min Rain = 0
KHRS 230215Z 10013G18KT 04/03 A2975 RMK A01 T00390025  RH  092%=      5-min Rain = 0
KHRS 230220Z 10013G18KT 04/03 A2975 RMK A01 T00400027  RH  092%=      5-min Rain = 0
KHRS 230225Z 10014G20KT 04/03 A2975 RMK A01 T00420029  RH  092%=      5-min Rain = 0
KHRS 230230Z 10018KT 04/03 A2974 RMK A01 T00420029  RH  092%=      5-min Rain = 0
KHRS 230235Z 10018G23KT 04/03 A2974 RMK A01 T00420030  RH  093%=      5-min Rain = 0
KHRS 230240Z 10018G23KT 04/03 A2974 RMK A01 T00410030  RH  093%=      5-min Rain = 0
KHRS 230245Z 11019KT 04/03 A2974 RMK A01 T00410030  RH  094%=      5-min Rain = 0
KHRS 230250Z 10016G22KT 04/03 A2974 RMK A01 T00410030  RH  094%=      5-min Rain = 0
KHRS 230255Z 10019KT 04/03 A2974 RMK A01 T00400030  RH  094%=      5-min Rain = 0
KHRS 230300Z 10016G23KT 04/03 A2974 RMK A01 T00400030  RH  094%=      5-min Rain = 0
KHRS 230305Z 10017G23KT 04/03 A2974 RMK A01 T00400029  RH  094%=      5-min Rain = 0
KHRS 230310Z 10019G24KT 04/03 A2975 RMK A01 T00390029  RH  094%=      5-min Rain = 0
KHRS 230315Z 10019KT 04/03 A2976 RMK A01 T00380029  RH  095%=      5-min Rain = 0
KHRS 230320Z 11018G23KT 04/03 A2977 RMK A01 T00380029  RH  095%=      5-min Rain = 0
KHRS 230325Z 11017G22KT 04/03 A2978 RMK A01 T00380029  RH  095%=      5-min Rain = 0
KHRS 230330Z 11014G19KT 04/03 A2978 RMK A01 T00380029  RH  095%=      5-min Rain = 0
KHRS 230335Z 11012G18KT 04/03 A2978 RMK A01 T00380029  RH  095%=      5-min Rain = 0
KHRS 230340Z 12015KT 04/03 A2978 RMK A01 T00390029  RH  095%=      5-min Rain = 0
KHRS 230345Z 12016G21KT 04/03 A2978 RMK A01 T00400030  RH  095%=      5-min Rain = 0
KHRS 230350Z 13014KT 04/03 A2978 RMK A01 T00400031  RH  095%=      5-min Rain = 0
KHRS 230355Z 12016KT 04/03 A2978 RMK A01 T00410032  RH  095%=      5-min Rain = 0
KHRS 230400Z 11016KT 04/03 A2976 RMK A01 T00410033  RH  096%=      5-min Rain = 0
KHRS 230405Z 11015KT 04/03 A2976 RMK A01 T00410034  RH  096%=      5-min Rain = 0.01
KHRS 230410Z 12012KT 04/03 A2977 RMK A01 T00410034  RH  097%=      5-min Rain = 0
KHRS 230415Z 13012KT 04/04 A2978 RMK A01 T00410035  RH  097%=      5-min Rain = 0
KHRS 230420Z 15008KT 04/04 A2978 RMK A01 T00410036  RH  098%=      5-min Rain = 0
KHRS 230425Z 16004KT 04/04 A2979 RMK A01 T00410036  RH  098%=      5-min Rain = 0
KHRS 230430Z 16005KT 04/04 A2979 RMK A01 T00410036  RH  098%=      5-min Rain = 0
KHRS 230435Z 15004KT 04/04 A2978 RMK A01 T00410037  RH  098%=      5-min Rain = 0
KHRS 230440Z 13006KT 04/04 A2977 RMK A01 T00420038  RH  098%=      5-min Rain = 0
KHRS 230445Z 12006KT 04/04 A2976 RMK A01 T00420038  RH  098%=      5-min Rain = 0
KHRS 230450Z 11007KT 04/04 A2975 RMK A01 T00430039  RH  099%=      5-min Rain = 0
KHRS 230455Z 10007KT 04/04 A2975 RMK A01 T00430039  RH  099%=      5-min Rain = 0
KHRS 230500Z 11008KT 04/04 A2976 RMK A01 T00430040  RH  099%=      5-min Rain = 0
KHRS 230505Z 11008KT 04/04 A2975 RMK A01 T00430040  RH  099%=      5-min Rain = 0
KHRS 230510Z 10009KT 04/04 A2974 RMK A01 T00440041  RH  099%=      5-min Rain = 0
KHRS 230515Z 10008KT 04/04 A2973 RMK A01 T00440041  RH  099%=      5-min Rain = 0
KHRS 230520Z 10009KT 04/04 A2973 RMK A01 T00440041  RH  100%=      5-min Rain = 0
KHRS 230525Z 09009KT 04/04 A2972 RMK A01 T00440042  RH  100%=      5-min Rain = 0
KHRS 230530Z 09011KT 04/04 A2971 RMK A01 T00440042  RH  100%=      5-min Rain = 0
KHRS 230535Z 10011KT 04/04 A2971 RMK A01 T00440042  RH  100%=      5-min Rain = 0
KHRS 230540Z 09012G17KT 05/04 A297 RMK A01 T00450043  RH  100%=      5-min Rain = 0
KHRS 230545Z 09013KT 04/04 A297 RMK A01 T00440043  RH  100%=      5-min Rain = 0
KHRS 230550Z 11012G17KT 05/04 A2971 RMK A01 T00450043  RH  100%=      5-min Rain = 0
KHRS 230555Z 10011KT 05/04 A2971 RMK A01 T00450043  RH  100%=      5-min Rain = 0

Page generated in 0.0359 seconds.